Time;durP1;ratioP1;P1;durP2;ratioP2;P2;SDS_P1;SDS_P2;PMS_P1;PMS_P2;Temp;Humidity;BMP_temperature;BMP_pressure;BME280_temperature;BME280_humidity;BME280_pressure;Samples;Min_cycle;Max_cycle;Signal;HPM_P1;HPM_P2
2023/12/02 00:01:57;;;;;;;0.50;0.50;;;;;;;16.84;55.96;94120.53;5051227;28;20175;-69
2023/12/02 00:04:23;;;;;;;0.50;0.50;;;;;;;17.01;55.29;94096.31;5050855;28;20222;-68
2023/12/02 00:06:48;;;;;;;0.40;0.40;;;;;;;17.03;55.80;94126.09;5050810;28;20194;-69
2023/12/02 00:09:13;;;;;;;0.40;0.40;;;;;;;17.06;54.94;94103.47;5050981;28;20190;-69
2023/12/02 00:11:39;;;;;;;0.88;0.60;;;;;;;17.23;52.01;94075.50;5050558;28;20632;-69
2023/12/02 00:14:04;;;;;;;0.65;0.65;;;;;;;17.42;51.41;94112.16;5050481;28;20186;-69
2023/12/02 00:16:30;;;;;;;0.40;0.40;;;;;;;17.64;50.35;94094.78;5050910;28;20705;-69
2023/12/02 00:18:55;;;;;;;0.40;0.40;;;;;;;17.82;49.57;94109.34;5050767;28;20171;-69
2023/12/02 00:21:21;;;;;;;0.40;0.40;;;;;;;17.85;50.02;94089.38;5050722;28;20186;-69
2023/12/02 00:23:46;;;;;;;0.60;0.60;;;;;;;17.72;51.47;94064.16;5050358;28;20178;-69
2023/12/02 00:26:12;;;;;;;0.45;0.45;;;;;;;17.85;49.41;94092.03;5050302;28;20198;-69
2023/12/02 00:28:37;;;;;;;0.40;0.40;;;;;;;17.82;49.46;94098.72;5050570;28;20324;-69
2023/12/02 00:31:03;;;;;;;0.50;0.50;;;;;;;17.88;48.86;94084.31;5050378;28;20182;-69
2023/12/02 00:33:29;;;;;;;0.50;0.50;;;;;;;17.97;48.42;94072.00;5050589;28;20187;-69
2023/12/02 00:35:55;;;;;;;0.40;0.40;;;;;;;17.96;47.89;94074.94;5050255;28;20644;-69
2023/12/02 00:38:21;;;;;;;0.75;0.75;;;;;;;18.24;44.99;94089.44;5050431;28;20181;-69
2023/12/02 00:40:46;;;;;;;0.32;0.32;;;;;;;18.40;45.62;94091.72;5050270;28;20181;-69
2023/12/02 00:43:12;;;;;;;0.52;0.52;;;;;;;18.40;47.31;94072.25;5050069;28;20664;-68
2023/12/02 00:45:37;;;;;;;0.30;0.30;;;;;;;18.29;47.51;94090.19;5050365;28;20279;-69
2023/12/02 00:48:03;;;;;;;0.43;0.43;;;;;;;18.09;47.80;94084.97;5050025;28;20179;-69
2023/12/02 00:50:29;;;;;;;0.40;0.40;;;;;;;18.08;49.17;94080.72;5050247;28;20233;-68
2023/12/02 00:52:54;;;;;;;0.30;0.30;;;;;;;17.97;49.78;94089.84;5050075;28;20179;-69
2023/12/02 00:55:20;;;;;;;0.32;0.32;;;;;;;17.94;48.77;94055.78;5050043;28;20653;-68
2023/12/02 00:57:45;;;;;;;0.40;0.40;;;;;;;17.97;45.55;94080.00;5049879;28;20177;-69
2023/12/02 01:00:11;;;;;;;0.40;0.40;;;;;;;18.03;46.30;94064.78;5050056;28;20179;-69
2023/12/02 01:02:37;;;;;;;0.40;0.40;;;;;;;18.05;46.33;94050.13;5049922;28;20183;-69
2023/12/02 01:05:02;;;;;;;0.60;0.60;;;;;;;18.00;46.32;94065.31;5049800;28;20226;-69
2023/12/02 01:07:28;;;;;;;1.63;1.52;;;;;;;18.05;45.46;94058.09;5049562;28;20214;-69
2023/12/02 01:09:53;;;;;;;0.40;0.40;;;;;;;18.05;45.24;94050.13;5049698;28;20236;-69
2023/12/02 01:12:19;;;;;;;0.30;0.30;;;;;;;18.11;45.65;94080.16;5049762;28;20614;-69
2023/12/02 01:14:44;;;;;;;0.80;0.80;;;;;;;18.09;47.46;94042.34;5049760;28;20170;-69
2023/12/02 01:17:10;;;;;;;7.20;1.50;;;;;;;17.96;46.80;94058.97;5049504;28;20214;-69
2023/12/02 01:19:35;;;;;;;0.50;0.50;;;;;;;17.97;46.17;94073.88;5049489;28;20182;-69
2023/12/02 01:22:01;;;;;;;0.30;0.30;;;;;;;17.87;46.97;94047.31;5049562;28;20178;-69
2023/12/02 01:24:27;;;;;;;0.40;0.40;;;;;;;17.89;47.07;94066.47;5056120;28;20206;-69
2023/12/02 01:26:53;;;;;;;0.50;0.50;;;;;;;18.16;42.81;94036.72;5069406;28;20217;-69
2023/12/02 01:29:18;;;;;;;0.40;0.40;;;;;;;18.29;45.07;94039.56;5069492;28;20202;-69
2023/12/02 01:31:44;;;;;;;0.40;0.40;;;;;;;18.34;45.70;94049.34;5069471;28;20239;-69
2023/12/02 01:34:09;;;;;;;0.30;0.30;;;;;;;18.12;46.72;94028.50;5069497;28;20221;-69
2023/12/02 01:36:35;;;;;;;1.45;0.88;;;;;;;18.09;46.58;94045.81;5069371;28;20178;-69
2023/12/02 01:39:00;;;;;;;0.30;0.30;;;;;;;18.01;46.71;94043.75;5069495;28;20943;-69
2023/12/02 01:41:26;;;;;;;0.30;0.30;;;;;;;17.92;47.33;94049.94;5069252;28;20186;-67
2023/12/02 01:43:51;;;;;;;9.25;1.00;;;;;;;17.75;48.61;94041.50;5068759;28;20183;-70
2023/12/02 01:46:17;;;;;;;0.40;0.40;;;;;;;17.55;48.56;94029.09;5069219;28;20658;-70
2023/12/02 01:48:43;;;;;;;0.40;0.40;;;;;;;17.40;48.65;94043.25;5069048;28;20213;-69
2023/12/02 01:51:09;;;;;;;4.20;4.00;;;;;;;17.34;48.99;94007.09;5069034;28;20190;-70
2023/12/02 01:53:35;;;;;;;0.47;0.47;;;;;;;17.29;47.14;94015.13;5068999;28;20178;-70
2023/12/02 01:56:00;;;;;;;0.50;0.50;;;;;;;17.34;46.33;93994.59;5069061;28;20251;-69
2023/12/02 01:58:26;;;;;;;0.32;0.32;;;;;;;17.73;39.68;94015.94;5068977;28;20178;-69
2023/12/02 02:00:52;;;;;;;0.50;0.50;;;;;;;18.02;43.96;94005.38;5069022;28;20209;-69
2023/12/02 02:03:17;;;;;;;0.35;0.35;;;;;;;18.02;45.32;93993.94;5068861;28;20181;-69
2023/12/02 02:05:44;;;;;;;0.30;0.30;;;;;;;17.94;44.83;94010.50;5068845;28;20218;-68
2023/12/02 02:08:10;;;;;;;0.30;0.30;;;;;;;17.81;46.02;94022.59;5068941;28;20184;-69
2023/12/02 02:10:36;;;;;;;0.40;0.40;;;;;;;17.76;45.14;94005.81;5068928;28;20190;-69
2023/12/02 02:13:01;;;;;;;0.30;0.30;;;;;;;17.58;47.89;94018.69;5068838;28;20273;-69
2023/12/02 02:15:27;;;;;;;0.30;0.30;;;;;;;17.47;49.43;94009.16;5068921;28;20178;-69
2023/12/02 02:17:52;;;;;;;0.70;0.70;;;;;;;17.09;51.60;94015.19;5069194;28;20182;-69
2023/12/02 02:20:18;;;;;;;0.40;0.40;;;;;;;16.88;52.70;93990.50;5068847;28;20190;-68
2023/12/02 02:22:43;;;;;;;0.40;0.40;;;;;;;16.76;52.74;93976.75;5068897;28;20198;-69
2023/12/02 02:25:09;;;;;;;0.40;0.40;;;;;;;16.56;53.53;93980.22;5068744;28;20194;-68
2023/12/02 02:27:34;;;;;;;0.70;0.70;;;;;;;16.19;56.33;94017.69;5068553;28;20183;-69
2023/12/02 02:30:00;;;;;;;0.40;0.40;;;;;;;15.94;57.57;94007.06;5068792;28;20193;-69
2023/12/02 02:32:25;;;;;;;0.30;0.30;;;;;;;15.90;58.40;93993.56;5068842;28;20205;-69
2023/12/02 02:34:51;;;;;;;0.50;0.50;;;;;;;15.72;59.25;93996.72;5068787;28;20268;-69
2023/12/02 02:37:17;;;;;;;0.50;0.50;;;;;;;15.61;59.69;93985.28;5068977;28;20186;-69
2023/12/02 02:39:42;;;;;;;0.75;0.65;;;;;;;15.50;60.25;94015.47;5068799;28;20220;-69
2023/12/02 02:42:08;;;;;;;1.80;0.60;;;;;;;15.32;61.11;94003.47;5068725;28;20228;-70
2023/12/02 02:44:34;;;;;;;0.40;0.40;;;;;;;15.28;61.20;93981.22;5067450;28;20621;-70
2023/12/02 02:47:00;;;;;;;0.77;0.77;;;;;;;15.19;61.79;93988.06;5067247;28;20277;-70
2023/12/02 02:49:25;;;;;;;0.40;0.40;;;;;;;15.13;62.99;93983.03;5072251;28;20182;-70
2023/12/02 02:51:51;;;;;;;0.40;0.40;;;;;;;14.96;63.67;93978.69;5072434;28;20182;-70
2023/12/02 02:54:16;;;;;;;0.40;0.40;;;;;;;14.73;64.52;93987.06;5072576;28;20192;-69
2023/12/02 02:56:43;;;;;;;0.40;0.40;;;;;;;14.67;64.80;93986.25;5072434;28;20181;-69
2023/12/02 02:59:09;;;;;;;0.30;0.30;;;;;;;14.65;65.13;93988.38;5072103;28;20182;-69
2023/12/02 03:01:34;;;;;;;0.40;0.40;;;;;;;14.68;65.24;93987.06;5072411;28;20263;-70
2023/12/02 03:04:00;;;;;;;0.40;0.40;;;;;;;14.69;65.51;94002.72;5072056;28;20183;-70
2023/12/02 03:06:26;;;;;;;0.40;0.40;;;;;;;14.46;66.46;93995.13;5072081;28;20210;-69
2023/12/02 03:08:51;;;;;;;0.40;0.40;;;;;;;14.33;66.81;93975.19;5072158;28;20211;-69
2023/12/02 03:11:16;;;;;;;0.30;0.30;;;;;;;14.40;66.54;93988.22;5071895;28;20178;-69
2023/12/02 03:13:42;;;;;;;0.30;0.30;;;;;;;14.38;67.08;93987.63;5071975;28;20628;-69
2023/12/02 03:16:08;;;;;;;0.50;0.50;;;;;;;14.05;68.64;93998.53;5071930;28;20844;-69
2023/12/02 03:18:33;;;;;;;0.60;0.60;;;;;;;14.01;68.78;93987.63;5071729;28;20220;-69
2023/12/02 03:20:59;;;;;;;0.40;0.40;;;;;;;13.95;68.93;93991.31;5071882;28;20549;-69
2023/12/02 03:23:25;;;;;;;0.30;0.30;;;;;;;14.00;68.97;93974.69;5071913;28;20589;-69
2023/12/02 03:25:51;;;;;;;1.50;0.67;;;;;;;13.69;70.50;94006.16;5071598;28;20297;-69
2023/12/02 03:28:18;;;;;;;0.40;0.40;;;;;;;13.66;70.04;93967.00;5071921;28;20193;-69
2023/12/02 03:30:43;;;;;;;0.30;0.30;;;;;;;13.72;69.67;93989.81;5071765;28;20170;-69
2023/12/02 03:33:09;;;;;;;0.30;0.30;;;;;;;13.57;70.06;93974.59;5071699;28;20213;-68
2023/12/02 03:35:35;;;;;;;0.40;0.40;;;;;;;13.70;69.80;93970.72;5071994;28;20205;-68
2023/12/02 03:38:00;;;;;;;0.30;0.30;;;;;;;13.77;69.11;93976.59;5071566;28;20181;-69
2023/12/02 03:40:26;;;;;;;0.40;0.40;;;;;;;13.65;69.16;93952.19;5071810;28;20639;-69
2023/12/02 03:42:51;;;;;;;1.07;0.97;;;;;;;13.68;69.79;94019.63;5071364;28;20183;-68
2023/12/02 03:45:16;;;;;;;0.37;0.37;;;;;;;13.67;68.73;93971.22;5071325;28;20234;-69
2023/12/02 03:47:42;;;;;;;0.40;0.40;;;;;;;13.63;68.72;94009.81;5071422;28;20243;-69
2023/12/02 03:50:09;;;;;;;0.40;0.40;;;;;;;13.65;68.69;94015.66;5071333;28;20572;-69
2023/12/02 03:52:34;;;;;;;0.40;0.40;;;;;;;13.78;68.72;93985.34;5071384;28;20178;-69
2023/12/02 03:55:02;;;;;;;0.40;0.40;;;;;;;13.91;67.69;93980.44;5071278;28;20247;-69
2023/12/02 03:57:27;;;;;;;1.17;1.17;;;;;;;13.87;67.81;94029.59;5071230;28;20178;-68
2023/12/02 03:59:53;;;;;;;0.40;0.40;;;;;;;13.77;67.67;93968.66;5070154;28;20186;-69
2023/12/02 04:02:18;;;;;;;0.40;0.40;;;;;;;13.91;68.33;93992.88;5070989;28;20249;-69
2023/12/02 04:04:44;;;;;;;0.40;0.40;;;;;;;13.73;69.57;93996.69;5070853;28;20238;-69
2023/12/02 04:07:09;;;;;;;0.50;0.50;;;;;;;13.46;69.48;93970.25;5071027;28;20236;-69
2023/12/02 04:09:35;;;;;;;11.80;0.80;;;;;;;13.60;69.33;93997.09;5070977;28;20182;-69
2023/12/02 04:12:00;;;;;;;0.40;0.40;;;;;;;13.65;69.25;93968.06;5071132;28;20627;-69
2023/12/02 04:14:26;;;;;;;0.47;0.47;;;;;;;13.77;68.47;93958.09;5070955;28;20182;-69
2023/12/02 04:16:51;;;;;;;0.40;0.40;;;;;;;13.78;68.52;93990.63;5071033;28;21022;-69
2023/12/02 04:19:17;;;;;;;0.40;0.40;;;;;;;13.91;68.73;93985.75;5070964;28;20210;-69
2023/12/02 04:21:44;;;;;;;0.40;0.40;;;;;;;13.92;68.71;93960.84;5070605;28;20167;-69
2023/12/02 04:24:10;;;;;;;0.40;0.40;;;;;;;13.96;68.49;93964.59;5070791;28;20178;-69
2023/12/02 04:26:37;;;;;;;0.30;0.30;;;;;;;14.04;67.65;93944.00;5070837;28;20289;-69
2023/12/02 04:29:02;;;;;;;0.40;0.40;;;;;;;14.14;67.69;93922.91;5070756;28;20236;-69
2023/12/02 04:31:28;;;;;;;0.40;0.40;;;;;;;13.79;69.35;93937.47;5070953;28;20182;-69
2023/12/02 04:33:54;;;;;;;0.50;0.50;;;;;;;13.80;68.44;93936.44;5070782;28;20186;-69
2023/12/02 04:36:19;;;;;;;0.47;0.47;;;;;;;13.77;68.30;93944.06;5070738;28;20174;-69
2023/12/02 04:38:45;;;;;;;0.40;0.40;;;;;;;13.83;68.67;93922.72;5070442;28;20174;-69
2023/12/02 04:41:11;;;;;;;0.40;0.40;;;;;;;13.93;68.33;93933.34;5070392;28;20201;-69
2023/12/02 04:43:36;;;;;;;0.40;0.40;;;;;;;13.86;68.61;93929.31;5070654;28;20174;-69
2023/12/02 04:46:02;;;;;;;0.40;0.40;;;;;;;13.88;68.65;93914.81;5070435;28;20202;-69
2023/12/02 04:48:27;;;;;;;0.40;0.40;;;;;;;13.85;68.43;93877.47;5070382;28;20198;-69
2023/12/02 04:50:53;;;;;;;0.30;0.30;;;;;;;13.95;68.66;93923.31;5070425;28;20182;-69
2023/12/02 04:53:18;;;;;;;0.30;0.30;;;;;;;13.87;69.38;93917.69;5070382;28;20232;-69
2023/12/02 04:55:44;;;;;;;0.40;0.40;;;;;;;13.86;69.08;93898.38;5070354;28;20231;-69
2023/12/02 04:58:09;;;;;;;0.40;0.40;;;;;;;13.78;69.54;93890.91;5070309;28;21007;-70
2023/12/02 05:00:35;;;;;;;0.60;0.60;;;;;;;13.75;69.34;93917.84;5070260;28;20175;-70
2023/12/02 05:03:00;;;;;;;0.47;0.47;;;;;;;13.74;69.35;93932.16;5070156;28;20265;-70
2023/12/02 05:05:26;;;;;;;0.30;0.30;;;;;;;13.75;69.42;93932.97;5069421;28;20766;-70
2023/12/02 05:07:52;;;;;;;1.20;1.10;;;;;;;13.80;68.90;93938.28;5067849;28;20178;-70
2023/12/02 05:10:17;;;;;;;0.87;0.87;;;;;;;13.59;69.38;93910.88;5068621;28;20256;-70
2023/12/02 05:12:42;;;;;;;0.50;0.50;;;;;;;13.79;69.34;93918.16;5069191;28;20181;-70
2023/12/02 05:15:11;;;;;;;0.40;0.40;;;;;;;13.83;69.33;93943.88;5069170;28;20650;-70
2023/12/02 05:17:37;;;;;;;0.50;0.50;;;;;;;13.72;69.78;93941.41;5069195;28;20232;-70
2023/12/02 05:20:03;;;;;;;0.30;0.30;;;;;;;13.59;70.20;93914.31;5065077;28;20187;-69
2023/12/02 05:22:28;;;;;;;0.57;0.57;;;;;;;13.70;69.21;93872.88;5049071;28;20179;-69
2023/12/02 05:24:54;;;;;;;0.40;0.40;;;;;;;13.76;65.57;93871.06;5049017;28;20272;-69
2023/12/02 05:27:19;;;;;;;0.40;0.40;;;;;;;13.86;66.60;93898.38;5048259;28;20670;-69
2023/12/02 05:29:45;;;;;;;0.97;0.93;;;;;;;13.71;66.08;93884.25;5047544;28;20208;-70
2023/12/02 05:32:10;;;;;;;0.40;0.40;;;;;;;13.95;66.30;93902.13;5048495;28;20179;-69
2023/12/02 05:34:36;;;;;;;2.60;1.17;;;;;;;13.86;66.82;93914.25;5048981;28;20636;-70
2023/12/02 05:37:02;;;;;;;0.40;0.40;;;;;;;13.77;67.13;93914.97;5049210;28;20186;-69
2023/12/02 05:39:27;;;;;;;0.40;0.40;;;;;;;13.88;66.86;93919.28;5048970;28;20207;-69
2023/12/02 05:41:53;;;;;;;0.60;0.60;;;;;;;13.94;66.01;93940.22;5048822;28;20546;-69
2023/12/02 05:44:19;;;;;;;0.40;0.40;;;;;;;14.01;65.94;93923.38;5048752;28;20262;-69
2023/12/02 05:46:44;;;;;;;0.50;0.50;;;;;;;14.17;64.86;93906.53;5048605;28;20282;-70
2023/12/02 05:49:10;;;;;;;0.70;0.70;;;;;;;14.04;65.56;93926.28;5048704;28;20280;-70
2023/12/02 05:51:39;;;;;;;0.50;0.50;;;;;;;14.16;64.61;93866.03;5048702;28;20221;-70
2023/12/02 05:54:08;;;;;;;0.30;0.30;;;;;;;14.16;65.32;93881.91;5048631;28;20624;-70
2023/12/02 05:56:33;;;;;;;0.40;0.40;;;;;;;14.16;64.87;93896.97;5048746;28;20210;-70
2023/12/02 05:58:59;;;;;;;0.40;0.40;;;;;;;14.16;65.41;93860.72;5048650;28;20198;-70
2023/12/02 06:01:24;;;;;;;0.40;0.40;;;;;;;14.17;65.67;93890.66;5048688;28;20253;-70
2023/12/02 06:03:50;;;;;;;0.50;0.50;;;;;;;14.15;64.81;93855.69;5048276;28;20207;-69
2023/12/02 06:06:16;;;;;;;0.40;0.40;;;;;;;14.19;65.11;93877.91;5003671;28;1269950;-70
2023/12/02 06:08:42;;;;;;;0.40;0.40;;;;;;;14.18;64.77;93885.06;5049353;28;20948;-70
2023/12/02 06:11:07;;;;;;;0.60;0.60;;;;;;;14.12;65.29;93909.13;5049204;28;20183;-70
2023/12/02 06:13:33;;;;;;;0.40;0.40;;;;;;;14.09;66.30;93941.41;5049259;28;20215;-70
2023/12/02 06:15:59;;;;;;;0.47;0.47;;;;;;;14.03;66.26;93886.84;5049099;28;20703;-69
2023/12/02 06:18:24;;;;;;;0.40;0.40;;;;;;;13.99;66.74;93915.66;5049055;28;20174;-71
2023/12/02 06:20:49;;;;;;;0.40;0.40;;;;;;;14.11;66.92;93926.06;5049014;28;20179;-70
2023/12/02 06:23:15;;;;;;;0.40;0.40;;;;;;;14.07;66.75;93943.50;5050855;28;20214;-70
2023/12/02 06:25:40;;;;;;;0.40;0.40;;;;;;;14.06;67.05;93933.97;5053073;28;20198;-69
2023/12/02 06:28:06;;;;;;;0.50;0.50;;;;;;;14.05;67.10;93927.06;5053292;28;20194;-70
2023/12/02 06:30:31;;;;;;;0.40;0.40;;;;;;;14.02;67.24;93944.25;5053124;28;20604;-70
2023/12/02 06:32:57;;;;;;;0.50;0.50;;;;;;;14.05;67.10;93945.59;5053033;28;20244;-69
2023/12/02 06:35:23;;;;;;;0.40;0.40;;;;;;;13.88;68.22;93966.91;5052922;28;20178;-69
2023/12/02 06:37:49;;;;;;;0.40;0.40;;;;;;;13.87;68.73;93917.69;5051655;28;20248;-70
2023/12/02 06:40:14;;;;;;;0.60;0.60;;;;;;;13.82;68.40;93992.53;5052922;28;20175;-69
2023/12/02 06:42:40;;;;;;;3.03;2.83;;;;;;;13.78;69.21;93909.44;5052605;28;20217;-70
2023/12/02 06:45:06;;;;;;;0.40;0.40;;;;;;;13.79;69.04;93926.91;5051452;28;20261;-69
2023/12/02 06:47:31;;;;;;;1.07;1.03;;;;;;;13.40;70.53;93973.91;5051618;28;20257;-69
2023/12/02 06:49:57;;;;;;;0.43;0.43;;;;;;;13.36;70.54;93938.44;5050045;28;20720;-69
2023/12/02 06:52:22;;;;;;;0.70;0.57;;;;;;;13.70;69.49;94010.41;5051100;28;20834;-70
2023/12/02 06:54:48;;;;;;;0.50;0.50;;;;;;;13.68;69.95;93919.94;5050231;28;20176;-69
2023/12/02 06:57:13;;;;;;;0.30;0.30;;;;;;;13.77;69.38;93952.00;5051310;28;20175;-69
2023/12/02 06:59:39;;;;;;;0.50;0.50;;;;;;;13.71;69.18;93945.09;5051324;28;20203;-69
2023/12/02 07:02:04;;;;;;;3.33;0.80;;;;;;;13.83;68.60;93958.94;5051409;28;20179;-69
2023/12/02 07:04:30;;;;;;;0.87;0.87;;;;;;;13.98;68.74;93970.44;5051345;28;20218;-69
2023/12/02 07:06:55;;;;;;;0.50;0.50;;;;;;;14.04;68.70;93939.50;5051426;28;20234;-69
2023/12/02 07:09:21;;;;;;;12.27;1.33;;;;;;;13.93;68.70;93986.25;5052055;28;20654;-69
2023/12/02 07:11:46;;;;;;;1.30;1.20;;;;;;;13.96;69.02;93930.19;5051898;28;20167;-69
2023/12/02 07:14:11;;;;;;;0.40;0.40;;;;;;;13.97;68.35;93936.28;5061533;28;20178;-69
2023/12/02 07:16:37;;;;;;;0.50;0.50;;;;;;;13.92;68.56;93963.50;5072186;28;20186;-69
2023/12/02 07:19:03;;;;;;;0.40;0.40;;;;;;;13.90;69.01;93915.34;5071927;28;20180;-69
2023/12/02 07:21:29;;;;;;;0.40;0.40;;;;;;;13.91;68.82;93934.66;5071965;28;20269;-69
2023/12/02 07:23:54;;;;;;;0.40;0.40;;;;;;;14.04;68.17;93949.28;5072047;28;20261;-69
2023/12/02 07:26:20;;;;;;;0.57;0.57;;;;;;;14.06;67.73;93978.97;5071713;28;20217;-69
2023/12/02 07:28:45;;;;;;;0.50;0.50;;;;;;;14.00;66.97;93927.84;5071769;28;20239;-69
2023/12/02 07:31:14;;;;;;;0.57;0.57;;;;;;;14.22;66.09;93962.13;5066546;28;20594;-69
2023/12/02 07:33:40;;;;;;;0.40;0.40;;;;;;;14.19;66.51;93973.22;5051348;28;20265;-69
2023/12/02 07:36:06;;;;;;;0.47;0.47;;;;;;;14.18;66.78;93956.53;5051652;28;20250;-69
2023/12/02 07:38:31;;;;;;;0.40;0.40;;;;;;;14.11;66.62;93978.97;5051722;28;20183;-69
2023/12/02 07:40:56;;;;;;;0.70;0.70;;;;;;;14.27;65.65;93938.34;5051382;28;20419;-69
2023/12/02 07:43:22;;;;;;;1.17;1.07;;;;;;;14.26;66.14;93973.81;5051643;28;20190;-69
2023/12/02 07:45:47;;;;;;;0.40;0.40;;;;;;;14.26;64.79;93942.84;5051266;28;20600;-69
2023/12/02 07:48:13;;;;;;;0.50;0.50;;;;;;;14.25;65.03;93965.06;5051462;28;20176;-69
2023/12/02 07:50:38;;;;;;;0.40;0.40;;;;;;;14.30;64.36;93938.63;5051603;28;20644;-69
2023/12/02 07:53:04;;;;;;;0.40;0.40;;;;;;;14.41;63.67;93942.16;5051513;28;20258;-69
2023/12/02 07:55:29;;;;;;;0.50;0.50;;;;;;;14.61;59.02;93938.81;5051303;28;20238;-69
2023/12/02 07:57:55;;;;;;;7.23;1.27;;;;;;;14.68;62.67;93913.69;5051449;28;20199;-69
2023/12/02 08:00:20;;;;;;;2.33;0.70;;;;;;;14.69;62.79;93894.09;5051332;28;20182;-69
2023/12/02 08:02:46;;;;;;;1.80;1.30;;;;;;;14.47;62.69;93908.53;5051315;28;20171;-69
2023/12/02 08:05:11;;;;;;;0.30;0.30;;;;;;;14.61;62.81;93958.16;5051367;28;20699;-69
2023/12/02 08:07:37;;;;;;;0.40;0.40;;;;;;;14.66;62.97;93928.25;5051142;28;20739;-69
2023/12/02 08:10:03;;;;;;;0.40;0.40;;;;;;;14.67;62.45;93943.09;5051097;28;20245;-69
2023/12/02 08:12:29;;;;;;;0.40;0.40;;;;;;;14.55;62.22;93929.25;5051346;28;20183;-69
2023/12/02 08:14:54;;;;;;;0.40;0.40;;;;;;;14.66;62.71;93929.03;5050427;28;20601;-69
2023/12/02 08:17:19;;;;;;;0.60;0.60;;;;;;;14.59;63.74;93933.78;5051094;28;20372;-69
2023/12/02 08:19:45;;;;;;;0.40;0.40;;;;;;;14.49;63.62;93915.19;5051040;28;20179;-69
2023/12/02 08:22:11;;;;;;;0.40;0.40;;;;;;;14.61;62.62;93902.53;5051017;28;20201;-69
2023/12/02 08:24:42;;;;;;;0.40;0.40;;;;;;;14.62;62.44;93941.19;5051083;28;20171;-69
2023/12/02 08:27:11;;;;;;;0.40;0.40;;;;;;;14.57;62.51;93843.19;5051400;28;20649;-69
2023/12/02 08:29:38;;;;;;;2.40;0.83;;;;;;;14.52;61.77;93884.75;5050123;28;20671;-69
2023/12/02 08:32:03;;;;;;;0.70;0.70;;;;;;;14.65;61.39;93879.75;5050555;28;20653;-69
2023/12/02 08:34:30;;;;;;;0.30;0.30;;;;;;;14.68;60.95;93929.59;5050591;28;20270;-69
2023/12/02 08:36:55;;;;;;;2.33;1.53;;;;;;;14.77;60.41;93870.81;5050422;28;20171;-69
2023/12/02 08:39:21;;;;;;;2.00;1.90;;;;;;;14.95;56.30;93875.63;5050523;28;20175;-69
2023/12/02 08:41:47;;;;;;;0.40;0.40;;;;;;;14.85;59.04;93884.34;5049647;28;20770;-69
2023/12/02 08:44:12;;;;;;;0.60;0.60;;;;;;;14.97;59.85;93903.44;5050210;28;20596;-69
2023/12/02 08:46:38;;;;;;;0.40;0.40;;;;;;;14.89;60.53;93871.34;5048509;28;20214;-69
2023/12/02 08:49:03;;;;;;;0.40;0.40;;;;;;;14.96;60.92;93887.81;5049968;28;20182;-69
2023/12/02 08:51:28;;;;;;;1.40;1.30;;;;;;;14.86;61.28;93922.22;5048621;28;20186;-69
2023/12/02 08:53:59;;;;;;;3.70;0.67;;;;;;;14.77;61.83;93914.00;5050309;28;20233;-69
2023/12/02 08:56:27;;;;;;;0.80;0.80;;;;;;;14.72;61.95;93927.19;5050020;28;20194;-69
2023/12/02 08:58:52;;;;;;;0.50;0.50;;;;;;;14.72;62.36;93935.94;5050192;28;20624;-69
2023/12/02 09:01:19;;;;;;;0.50;0.50;;;;;;;14.75;61.96;93915.28;5049987;28;20179;-69
2023/12/02 09:03:44;;;;;;;0.40;0.40;;;;;;;14.83;62.03;93920.88;5048583;28;20236;-69
2023/12/02 09:06:10;;;;;;;0.67;0.67;;;;;;;14.77;63.17;93886.69;5048825;28;20231;-68
2023/12/02 09:08:35;;;;;;;0.43;0.43;;;;;;;14.89;62.32;93903.13;5049554;28;20179;-68
2023/12/02 09:11:02;;;;;;;0.40;0.40;;;;;;;14.94;65.18;93921.72;5050088;28;20182;-68
2023/12/02 09:13:27;;;;;;;0.40;0.40;;;;;;;15.04;64.10;93935.81;5050300;28;20199;-68
2023/12/02 09:15:53;;;;;;;0.60;0.60;;;;;;;15.14;64.52;93919.09;5049879;28;20171;-69
2023/12/02 09:18:35;;;;;;;0.30;0.30;;;;;;;15.26;63.36;93909.06;5049886;28;20175;-68
2023/12/02 09:21:02;;;;;;;0.30;0.30;;;;;;;15.15;63.98;93902.16;5049752;28;20904;-69
2023/12/02 09:23:28;;;;;;;0.50;0.50;;;;;;;15.22;64.21;93920.47;5050133;28;20183;-69
2023/12/02 09:25:59;;;;;;;0.57;0.57;;;;;;;15.41;63.54;93906.44;5049266;28;20194;-69
2023/12/02 09:28:29;;;;;;;1.47;1.40;;;;;;;15.37;61.51;93900.09;5048871;28;20179;-68
2023/12/02 09:31:03;;;;;;;0.40;0.40;;;;;;;15.58;61.00;93900.91;5041914;28;20175;-68
2023/12/02 09:33:29;;;;;;;2.50;2.37;;;;;;;15.75;60.40;93890.81;5043555;28;20217;-68
2023/12/02 09:35:59;;;;;;;0.67;0.67;;;;;;;15.97;59.59;93877.28;5049654;28;20191;-68
2023/12/02 09:38:26;;;;;;;1.50;1.37;;;;;;;16.11;57.36;93898.75;5045636;28;20266;-69
2023/12/02 09:41:23;;;;;;;0.67;0.67;;;;;;;16.14;57.04;93908.84;5048613;28;20187;-68
2023/12/02 09:44:26;;;;;;;0.40;0.40;;;;;;;16.30;57.01;93901.63;5049441;28;20183;-68
2023/12/02 09:47:08;;;;;;;0.40;0.40;;;;;;;16.31;57.94;93880.13;5048365;28;20202;-69
2023/12/02 09:49:58;;;;;;;0.55;0.55;;;;;;;16.48;55.79;93899.19;5049450;28;20249;-67
2023/12/02 09:52:44;;;;;;;0.65;0.65;;;;;;;16.46;54.88;93897.88;5047753;28;20209;-69
2023/12/02 09:55:33;;;;;;;0.80;0.80;;;;;;;16.44;55.18;93900.78;5027884;28;20241;-68
2023/12/02 09:58:41;;;;;;;23.87;18.53;;;;;;;16.74;54.43;93910.56;5048687;28;20210;-68
2023/12/02 10:01:15;;;;;;;0.50;0.50;;;;;;;16.98;55.68;93884.94;4987891;28;20208;-69
2023/12/02 10:04:11;;;;;;;1.15;1.13;;;;;;;17.31;53.25;93891.38;5003184;28;20577;-69
2023/12/02 10:07:10;;;;;;;0.40;0.40;;;;;;;17.62;53.18;93876.03;5049327;28;20340;-69
2023/12/02 10:09:53;;;;;;;0.40;0.40;;;;;;;17.76;52.47;93872.72;5048217;28;20182;-67
2023/12/02 10:12:40;;;;;;;0.50;0.50;;;;;;;17.95;50.92;93873.63;5047791;28;20652;-69
2023/12/02 10:15:11;;;;;;;0.40;0.40;;;;;;;18.09;51.15;93877.22;5049093;28;20174;-69
2023/12/02 10:18:01;;;;;;;0.40;0.40;;;;;;;18.13;50.46;93856.13;5048933;28;20175;-69
2023/12/02 10:20:28;;;;;;;0.40;0.40;;;;;;;17.97;50.44;93839.53;5039978;28;20187;-69
2023/12/02 10:23:17;;;;;;;0.40;0.40;;;;;;;18.00;50.97;93861.03;5049088;28;20621;-69
2023/12/02 10:26:00;;;;;;;0.30;0.30;;;;;;;17.82;50.73;93879.59;5048659;28;20199;-69
2023/12/02 10:28:58;;;;;;;0.45;0.45;;;;;;;17.73;51.49;93861.53;5048160;28;20227;-66
2023/12/02 10:31:30;;;;;;;0.85;0.85;;;;;;;17.69;50.15;93849.09;5048012;28;20191;-69
2023/12/02 10:34:10;;;;;;;0.57;0.57;;;;;;;17.67;50.27;93841.38;5048955;28;20244;-69
2023/12/02 10:36:37;;;;;;;0.50;0.50;;;;;;;17.59;50.57;93835.84;5048141;28;20186;-69
2023/12/02 10:39:09;;;;;;;0.40;0.40;;;;;;;17.59;51.34;93831.31;5048087;28;20286;-69
2023/12/02 10:41:58;;;;;;;0.30;0.30;;;;;;;17.58;51.63;93823.59;5047992;28;20191;-69
2023/12/02 10:44:24;;;;;;;0.50;0.50;;;;;;;17.48;51.04;93816.50;5048078;28;20179;-69
2023/12/02 10:46:53;;;;;;;0.40;0.40;;;;;;;17.50;50.69;93824.19;5048087;28;20203;-68
2023/12/02 10:49:20;;;;;;;0.40;0.40;;;;;;;17.48;50.62;93832.44;5048042;28;20179;-67
2023/12/02 10:51:49;;;;;;;0.30;0.30;;;;;;;17.53;49.98;93811.13;5047703;28;20175;-67
2023/12/02 10:54:17;;;;;;;0.50;0.50;;;;;;;17.46;50.21;93817.84;5047855;28;20183;-69
2023/12/02 10:56:46;;;;;;;1.70;1.60;;;;;;;17.51;48.68;93807.97;5047021;28;20167;-69
2023/12/02 10:59:13;;;;;;;0.30;0.30;;;;;;;17.47;48.69;93806.91;5047693;28;20229;-69
2023/12/02 11:01:46;;;;;;;0.30;0.30;;;;;;;17.51;46.84;93785.88;5047856;28;20191;-69
2023/12/02 11:04:11;;;;;;;2.38;1.52;;;;;;;17.62;45.87;93811.34;5048624;28;20632;-69
2023/12/02 11:06:39;;;;;;;0.40;0.40;;;;;;;17.61;46.37;93781.25;5048834;28;20290;-68
2023/12/02 11:09:36;;;;;;;0.38;0.38;;;;;;;17.68;46.13;93770.31;5070101;28;20237;-68
2023/12/02 11:12:14;;;;;;;0.38;0.38;;;;;;;17.64;44.22;93740.78;5072294;28;20175;-68
2023/12/02 11:14:43;;;;;;;0.40;0.40;;;;;;;17.76;44.97;93768.91;5061259;28;20210;-68
2023/12/02 11:17:27;;;;;;;0.30;0.30;;;;;;;17.82;46.74;93770.41;5052335;28;20175;-68
2023/12/02 11:20:22;;;;;;;0.40;0.40;;;;;;;17.83;46.29;93764.03;5052366;28;20175;-68
2023/12/02 11:23:13;;;;;;;0.40;0.40;;;;;;;17.79;45.19;93768.34;5052310;28;20167;-69
2023/12/02 11:25:49;;;;;;;0.63;0.63;;;;;;;17.80;44.56;93757.41;5024207;28;20219;-67
2023/12/02 11:28:56;;;;;;;0.30;0.30;;;;;;;17.74;45.24;93755.84;5051912;28;20191;-67
2023/12/02 11:31:32;;;;;;;0.40;0.40;;;;;;;17.69;45.19;93763.91;4989568;28;20196;-69
2023/12/02 11:34:27;;;;;;;0.40;0.40;;;;;;;17.66;45.21;93746.63;4988986;28;20604;-69
2023/12/02 11:37:28;;;;;;;0.40;0.40;;;;;;;17.67;43.49;93756.19;5033186;28;20195;-69
2023/12/02 11:40:12;;;;;;;0.47;0.47;;;;;;;17.65;43.25;93736.25;5032184;28;20260;-70